sensor_id;sensor_type;location;lat;lon;timestamp;temperature;humidity
15930;DHT22;8064;51.142;4.780;2022-08-19T00:01:28;19.10;99.90
15930;DHT22;8064;51.142;4.780;2022-08-19T00:03:56;19.10;99.90
15930;DHT22;8064;51.142;4.780;2022-08-19T00:06:22;19.00;99.90
15930;DHT22;8064;51.142;4.780;2022-08-19T00:08:48;19.00;99.90
15930;DHT22;8064;51.142;4.780;2022-08-19T00:11:13;19.00;99.90
15930;DHT22;8064;51.142;4.780;2022-08-19T00:13:39;18.90;99.90
15930;DHT22;8064;51.142;4.780;2022-08-19T00:16:06;18.90;99.90
15930;DHT22;8064;51.142;4.780;2022-08-19T00:18:33;18.80;99.90
15930;DHT22;8064;51.142;4.780;2022-08-19T00:20:59;18.80;99.90
15930;DHT22;8064;51.142;4.780;2022-08-19T00:23:25;18.80;99.90
15930;DHT22;8064;51.142;4.780;2022-08-19T00:25:51;18.80;99.90
15930;DHT22;8064;51.142;4.780;2022-08-19T00:28:18;18.70;99.90
15930;DHT22;8064;51.142;4.780;2022-08-19T00:30:44;18.70;99.90
15930;DHT22;8064;51.142;4.780;2022-08-19T00:33:10;18.70;99.90
15930;DHT22;8064;51.142;4.780;2022-08-19T00:35:36;18.70;99.90
15930;DHT22;8064;51.142;4.780;2022-08-19T00:38:04;18.70;99.90
15930;DHT22;8064;51.142;4.780;2022-08-19T00:40:31;18.70;99.90
15930;DHT22;8064;51.142;4.780;2022-08-19T00:42:56;18.70;99.90
15930;DHT22;8064;51.142;4.780;2022-08-19T00:45:25;18.70;99.90
15930;DHT22;8064;51.142;4.780;2022-08-19T00:47:50;18.70;99.90
15930;DHT22;8064;51.142;4.780;2022-08-19T00:50:18;18.70;99.90
15930;DHT22;8064;51.142;4.780;2022-08-19T00:52:47;18.70;99.90
15930;DHT22;8064;51.142;4.780;2022-08-19T00:55:19;18.70;99.90
15930;DHT22;8064;51.142;4.780;2022-08-19T00:57:53;18.70;99.90
15930;DHT22;8064;51.142;4.780;2022-08-19T01:00:22;18.70;99.90
15930;DHT22;8064;51.142;4.780;2022-08-19T01:02:49;18.80;99.90
15930;DHT22;8064;51.142;4.780;2022-08-19T01:05:18;18.80;99.90
15930;DHT22;8064;51.142;4.780;2022-08-19T01:07:46;18.80;99.90
15930;DHT22;8064;51.142;4.780;2022-08-19T01:10:16;18.70;99.90
15930;DHT22;8064;51.142;4.780;2022-08-19T01:12:45;18.80;99.90
15930;DHT22;8064;51.142;4.780;2022-08-19T01:15:14;18.80;99.90
15930;DHT22;8064;51.142;4.780;2022-08-19T01:17:42;18.80;99.90
15930;DHT22;8064;51.142;4.780;2022-08-19T01:20:13;18.80;99.90
15930;DHT22;8064;51.142;4.780;2022-08-19T01:22:46;18.80;99.90
15930;DHT22;8064;51.142;4.780;2022-08-19T01:25:14;18.80;99.90
15930;DHT22;8064;51.142;4.780;2022-08-19T01:27:43;18.80;99.90
15930;DHT22;8064;51.142;4.780;2022-08-19T01:30:12;18.80;99.90
15930;DHT22;8064;51.142;4.780;2022-08-19T01:32:38;18.80;99.90
15930;DHT22;8064;51.142;4.780;2022-08-19T01:35:04;18.80;99.90
15930;DHT22;8064;51.142;4.780;2022-08-19T01:37:42;18.80;99.90
15930;DHT22;8064;51.142;4.780;2022-08-19T01:40:08;18.80;99.90
15930;DHT22;8064;51.142;4.780;2022-08-19T01:42:34;18.80;99.90
15930;DHT22;8064;51.142;4.780;2022-08-19T01:45:00;18.80;99.90
15930;DHT22;8064;51.142;4.780;2022-08-19T01:47:26;18.80;99.90
15930;DHT22;8064;51.142;4.780;2022-08-19T01:49:52;18.80;99.90
15930;DHT22;8064;51.142;4.780;2022-08-19T01:52:17;18.80;99.90
15930;DHT22;8064;51.142;4.780;2022-08-19T01:54:43;18.80;99.90
15930;DHT22;8064;51.142;4.780;2022-08-19T01:57:12;18.80;99.90
15930;DHT22;8064;51.142;4.780;2022-08-19T01:59:40;18.80;99.90
15930;DHT22;8064;51.142;4.780;2022-08-19T02:02:07;18.80;99.90
15930;DHT22;8064;51.142;4.780;2022-08-19T02:04:34;18.80;99.90
15930;DHT22;8064;51.142;4.780;2022-08-19T02:07:01;18.80;99.90
15930;DHT22;8064;51.142;4.780;2022-08-19T02:09:27;18.80;99.90
15930;DHT22;8064;51.142;4.780;2022-08-19T02:11:52;18.80;99.90
15930;DHT22;8064;51.142;4.780;2022-08-19T02:14:18;18.80;99.90
15930;DHT22;8064;51.142;4.780;2022-08-19T02:16:44;18.80;99.90
15930;DHT22;8064;51.142;4.780;2022-08-19T02:19:10;18.80;99.90
15930;DHT22;8064;51.142;4.780;2022-08-19T02:21:36;18.80;99.90
15930;DHT22;8064;51.142;4.780;2022-08-19T02:24:03;18.80;99.90
15930;DHT22;8064;51.142;4.780;2022-08-19T02:26:29;18.80;99.90
15930;DHT22;8064;51.142;4.780;2022-08-19T02:28:55;18.80;99.90
15930;DHT22;8064;51.142;4.780;2022-08-19T02:31:24;18.80;99.90
15930;DHT22;8064;51.142;4.780;2022-08-19T02:33:50;18.80;99.90
15930;DHT22;8064;51.142;4.780;2022-08-19T02:36:18;18.80;99.90
15930;DHT22;8064;51.142;4.780;2022-08-19T02:38:45;18.70;99.90
15930;DHT22;8064;51.142;4.780;2022-08-19T02:43:57;18.70;99.90
15930;DHT22;8064;51.142;4.780;2022-08-19T02:46:26;18.70;99.90
15930;DHT22;8064;51.142;4.780;2022-08-19T02:48:54;18.70;99.90
15930;DHT22;8064;51.142;4.780;2022-08-19T02:51:26;18.70;99.90
15930;DHT22;8064;51.142;4.780;2022-08-19T02:53:52;18.60;99.90
15930;DHT22;8064;51.142;4.780;2022-08-19T02:56:19;18.60;99.90
15930;DHT22;8064;51.142;4.780;2022-08-19T02:58:46;18.60;99.90
15930;DHT22;8064;51.142;4.780;2022-08-19T03:01:21;18.60;99.90
15930;DHT22;8064;51.142;4.780;2022-08-19T03:03:47;18.60;99.90
15930;DHT22;8064;51.142;4.780;2022-08-19T03:06:14;18.60;99.90
15930;DHT22;8064;51.142;4.780;2022-08-19T03:08:43;18.60;99.90
15930;DHT22;8064;51.142;4.780;2022-08-19T03:11:20;18.50;99.90
15930;DHT22;8064;51.142;4.780;2022-08-19T03:13:47;18.50;99.90
15930;DHT22;8064;51.142;4.780;2022-08-19T03:16:15;18.50;99.90
15930;DHT22;8064;51.142;4.780;2022-08-19T03:18:41;18.50;99.90
15930;DHT22;8064;51.142;4.780;2022-08-19T03:21:07;18.50;99.90
15930;DHT22;8064;51.142;4.780;2022-08-19T03:23:34;18.50;99.90
15930;DHT22;8064;51.142;4.780;2022-08-19T03:26:03;18.50;99.90
15930;DHT22;8064;51.142;4.780;2022-08-19T03:28:30;18.50;99.90
15930;DHT22;8064;51.142;4.780;2022-08-19T03:30:59;18.50;99.90
15930;DHT22;8064;51.142;4.780;2022-08-19T03:33:25;18.50;99.90
15930;DHT22;8064;51.142;4.780;2022-08-19T03:38:31;18.40;99.90
15930;DHT22;8064;51.142;4.780;2022-08-19T03:40:58;18.40;99.90
15930;DHT22;8064;51.142;4.780;2022-08-19T03:43:24;18.40;99.90
15930;DHT22;8064;51.142;4.780;2022-08-19T03:45:59;18.40;99.90
15930;DHT22;8064;51.142;4.780;2022-08-19T03:48:25;18.40;99.90
15930;DHT22;8064;51.142;4.780;2022-08-19T03:50:51;18.40;99.90
15930;DHT22;8064;51.142;4.780;2022-08-19T03:53:17;18.50;99.90
15930;DHT22;8064;51.142;4.780;2022-08-19T03:55:42;18.40;99.90
15930;DHT22;8064;51.142;4.780;2022-08-19T03:58:08;18.40;99.90
15930;DHT22;8064;51.142;4.780;2022-08-19T04:00:36;18.40;99.90
15930;DHT22;8064;51.142;4.780;2022-08-19T04:03:02;18.40;99.90
15930;DHT22;8064;51.142;4.780;2022-08-19T04:05:28;18.40;99.90
15930;DHT22;8064;51.142;4.780;2022-08-19T04:07:54;18.30;99.90
15930;DHT22;8064;51.142;4.780;2022-08-19T04:10:23;18.30;99.90
15930;DHT22;8064;51.142;4.780;2022-08-19T04:12:49;18.30;99.90
15930;DHT22;8064;51.142;4.780;2022-08-19T04:15:15;18.30;99.90
15930;DHT22;8064;51.142;4.780;2022-08-19T04:17:41;18.30;99.90
15930;DHT22;8064;51.142;4.780;2022-08-19T04:20:07;18.30;99.90
15930;DHT22;8064;51.142;4.780;2022-08-19T04:22:32;18.30;99.90
15930;DHT22;8064;51.142;4.780;2022-08-19T04:24:58;18.20;99.90
15930;DHT22;8064;51.142;4.780;2022-08-19T04:27:24;18.20;99.90
15930;DHT22;8064;51.142;4.780;2022-08-19T04:29:50;18.20;99.90
15930;DHT22;8064;51.142;4.780;2022-08-19T04:32:15;18.20;99.90
15930;DHT22;8064;51.142;4.780;2022-08-19T04:34:41;18.20;99.90
15930;DHT22;8064;51.142;4.780;2022-08-19T04:37:08;18.20;99.90
15930;DHT22;8064;51.142;4.780;2022-08-19T04:39:38;18.20;99.90
15930;DHT22;8064;51.142;4.780;2022-08-19T04:42:22;18.10;99.90
15930;DHT22;8064;51.142;4.780;2022-08-19T04:45:10;18.10;99.90
15930;DHT22;8064;51.142;4.780;2022-08-19T04:47:38;18.10;99.90
15930;DHT22;8064;51.142;4.780;2022-08-19T04:50:06;18.10;99.90
15930;DHT22;8064;51.142;4.780;2022-08-19T04:52:33;18.10;99.90
15930;DHT22;8064;51.142;4.780;2022-08-19T04:54:59;18.00;99.90
15930;DHT22;8064;51.142;4.780;2022-08-19T04:57:25;18.00;99.90
15930;DHT22;8064;51.142;4.780;2022-08-19T05:00:02;18.00;99.90
15930;DHT22;8064;51.142;4.780;2022-08-19T05:02:28;18.00;99.90
15930;DHT22;8064;51.142;4.780;2022-08-19T05:05:07;18.00;99.90
15930;DHT22;8064;51.142;4.780;2022-08-19T05:07:33;18.00;99.90
15930;DHT22;8064;51.142;4.780;2022-08-19T05:09:59;18.00;99.90
15930;DHT22;8064;51.142;4.780;2022-08-19T05:12:25;18.00;99.90
15930;DHT22;8064;51.142;4.780;2022-08-19T05:14:52;18.00;99.90
15930;DHT22;8064;51.142;4.780;2022-08-19T05:17:18;18.00;99.90
15930;DHT22;8064;51.142;4.780;2022-08-19T05:19:43;18.00;99.90
15930;DHT22;8064;51.142;4.780;2022-08-19T05:22:29;18.00;99.90
15930;DHT22;8064;51.142;4.780;2022-08-19T05:25:11;18.00;99.90
15930;DHT22;8064;51.142;4.780;2022-08-19T05:27:41;18.10;99.90
15930;DHT22;8064;51.142;4.780;2022-08-19T05:30:08;18.10;99.90
15930;DHT22;8064;51.142;4.780;2022-08-19T05:32:34;18.20;99.90
15930;DHT22;8064;51.142;4.780;2022-08-19T05:35:00;18.20;99.90
15930;DHT22;8064;51.142;4.780;2022-08-19T05:37:26;18.30;99.90
15930;DHT22;8064;51.142;4.780;2022-08-19T05:39:53;18.30;99.90
15930;DHT22;8064;51.142;4.780;2022-08-19T05:42:20;18.30;99.90
15930;DHT22;8064;51.142;4.780;2022-08-19T05:44:47;18.40;99.90
15930;DHT22;8064;51.142;4.780;2022-08-19T05:47:15;18.50;99.90
15930;DHT22;8064;51.142;4.780;2022-08-19T05:49:42;18.50;99.90
15930;DHT22;8064;51.142;4.780;2022-08-19T05:52:11;18.60;99.90
15930;DHT22;8064;51.142;4.780;2022-08-19T05:54:39;18.70;99.90
15930;DHT22;8064;51.142;4.780;2022-08-19T05:57:07;18.70;99.90
15930;DHT22;8064;51.142;4.780;2022-08-19T05:59:34;18.80;99.90
15930;DHT22;8064;51.142;4.780;2022-08-19T06:02:02;18.90;99.90
15930;DHT22;8064;51.142;4.780;2022-08-19T06:04:28;19.00;99.90
15930;DHT22;8064;51.142;4.780;2022-08-19T06:06:54;19.00;99.90
15930;DHT22;8064;51.142;4.780;2022-08-19T06:09:21;19.10;99.90
15930;DHT22;8064;51.142;4.780;2022-08-19T06:11:50;19.20;99.90
15930;DHT22;8064;51.142;4.780;2022-08-19T06:14:21;19.20;99.90
15930;DHT22;8064;51.142;4.780;2022-08-19T06:16:48;19.30;99.90
15930;DHT22;8064;51.142;4.780;2022-08-19T06:19:16;19.40;99.90
15930;DHT22;8064;51.142;4.780;2022-08-19T06:21:45;19.50;99.90
15930;DHT22;8064;51.142;4.780;2022-08-19T06:24:13;19.60;99.90
15930;DHT22;8064;51.142;4.780;2022-08-19T06:26:43;19.70;99.90
15930;DHT22;8064;51.142;4.780;2022-08-19T06:29:10;19.80;99.90
15930;DHT22;8064;51.142;4.780;2022-08-19T06:31:36;19.80;99.90
15930;DHT22;8064;51.142;4.780;2022-08-19T06:34:05;19.80;99.90
15930;DHT22;8064;51.142;4.780;2022-08-19T06:36:36;19.90;99.90
15930;DHT22;8064;51.142;4.780;2022-08-19T06:39:08;19.90;99.90
15930;DHT22;8064;51.142;4.780;2022-08-19T06:41:36;20.00;99.90
15930;DHT22;8064;51.142;4.780;2022-08-19T06:44:02;20.00;99.90
15930;DHT22;8064;51.142;4.780;2022-08-19T06:46:28;20.00;99.90
15930;DHT22;8064;51.142;4.780;2022-08-19T06:48:54;20.00;99.90
15930;DHT22;8064;51.142;4.780;2022-08-19T06:51:21;20.00;99.90
15930;DHT22;8064;51.142;4.780;2022-08-19T06:53:49;20.00;99.90
15930;DHT22;8064;51.142;4.780;2022-08-19T06:56:18;19.90;99.90
15930;DHT22;8064;51.142;4.780;2022-08-19T06:58:44;19.90;99.90
15930;DHT22;8064;51.142;4.780;2022-08-19T07:01:12;19.90;99.90
15930;DHT22;8064;51.142;4.780;2022-08-19T07:03:38;19.90;99.90
15930;DHT22;8064;51.142;4.780;2022-08-19T07:06:08;20.00;99.90
15930;DHT22;8064;51.142;4.780;2022-08-19T07:08:35;20.00;99.90
15930;DHT22;8064;51.142;4.780;2022-08-19T07:13:47;20.00;99.90
15930;DHT22;8064;51.142;4.780;2022-08-19T07:16:17;20.00;99.90
15930;DHT22;8064;51.142;4.780;2022-08-19T07:18:46;20.00;99.90
15930;DHT22;8064;51.142;4.780;2022-08-19T07:23:59;20.00;99.90
15930;DHT22;8064;51.142;4.780;2022-08-19T07:26:28;20.00;99.90
15930;DHT22;8064;51.142;4.780;2022-08-19T07:28:55;20.00;99.90
15930;DHT22;8064;51.142;4.780;2022-08-19T07:31:25;20.00;99.90
15930;DHT22;8064;51.142;4.780;2022-08-19T07:33:53;20.10;99.90
15930;DHT22;8064;51.142;4.780;2022-08-19T07:36:25;20.10;99.90
15930;DHT22;8064;51.142;4.780;2022-08-19T07:38:56;20.10;99.90
15930;DHT22;8064;51.142;4.780;2022-08-19T07:41:24;20.10;99.90
15930;DHT22;8064;51.142;4.780;2022-08-19T07:43:52;20.10;99.90
15930;DHT22;8064;51.142;4.780;2022-08-19T07:46:19;20.20;99.90
15930;DHT22;8064;51.142;4.780;2022-08-19T07:48:46;20.30;99.90
15930;DHT22;8064;51.142;4.780;2022-08-19T07:51:15;20.40;99.90
15930;DHT22;8064;51.142;4.780;2022-08-19T07:53:41;20.40;99.90
15930;DHT22;8064;51.142;4.780;2022-08-19T07:56:08;20.50;99.90
15930;DHT22;8064;51.142;4.780;2022-08-19T07:58:38;20.70;99.90
15930;DHT22;8064;51.142;4.780;2022-08-19T08:01:06;20.80;99.90
15930;DHT22;8064;51.142;4.780;2022-08-19T08:03:32;20.90;99.90
15930;DHT22;8064;51.142;4.780;2022-08-19T08:06:16;21.10;99.90
15930;DHT22;8064;51.142;4.780;2022-08-19T08:09:01;21.40;99.90
15930;DHT22;8064;51.142;4.780;2022-08-19T08:11:45;21.50;99.90
15930;DHT22;8064;51.142;4.780;2022-08-19T08:14:16;21.60;99.90
15930;DHT22;8064;51.142;4.780;2022-08-19T08:16:42;21.80;99.90
15930;DHT22;8064;51.142;4.780;2022-08-19T08:19:11;21.90;99.90
15930;DHT22;8064;51.142;4.780;2022-08-19T08:21:37;22.00;99.90
15930;DHT22;8064;51.142;4.780;2022-08-19T08:24:03;22.10;99.90
15930;DHT22;8064;51.142;4.780;2022-08-19T08:26:29;22.10;99.90
15930;DHT22;8064;51.142;4.780;2022-08-19T08:28:54;22.10;99.90
15930;DHT22;8064;51.142;4.780;2022-08-19T08:31:20;22.20;99.90
15930;DHT22;8064;51.142;4.780;2022-08-19T08:33:47;22.20;99.90
15930;DHT22;8064;51.142;4.780;2022-08-19T08:36:13;22.10;99.90
15930;DHT22;8064;51.142;4.780;2022-08-19T08:38:40;22.10;99.90
15930;DHT22;8064;51.142;4.780;2022-08-19T08:41:15;22.10;99.90
15930;DHT22;8064;51.142;4.780;2022-08-19T08:43:46;22.10;99.90
15930;DHT22;8064;51.142;4.780;2022-08-19T08:48:58;22.10;99.90
15930;DHT22;8064;51.142;4.780;2022-08-19T08:54:11;22.40;99.90
15930;DHT22;8064;51.142;4.780;2022-08-19T08:56:40;22.60;99.90
15930;DHT22;8064;51.142;4.780;2022-08-19T09:01:57;22.80;99.90
15930;DHT22;8064;51.142;4.780;2022-08-19T09:04:23;22.90;99.90
15930;DHT22;8064;51.142;4.780;2022-08-19T09:06:55;23.00;99.90
15930;DHT22;8064;51.142;4.780;2022-08-19T09:17:29;22.70;99.90
15930;DHT22;8064;51.142;4.780;2022-08-19T09:19:59;22.60;99.90
15930;DHT22;8064;51.142;4.780;2022-08-19T09:22:30;22.50;99.90
15930;DHT22;8064;51.142;4.780;2022-08-19T09:24:56;22.40;99.90
15930;DHT22;8064;51.142;4.780;2022-08-19T09:27:23;22.30;99.90
15930;DHT22;8064;51.142;4.780;2022-08-19T09:29:50;22.30;99.90
15930;DHT22;8064;51.142;4.780;2022-08-19T09:32:17;22.30;99.90
15930;DHT22;8064;51.142;4.780;2022-08-19T09:34:44;22.30;99.90
15930;DHT22;8064;51.142;4.780;2022-08-19T09:37:09;22.30;99.90
15930;DHT22;8064;51.142;4.780;2022-08-19T09:39:35;22.30;99.90
15930;DHT22;8064;51.142;4.780;2022-08-19T09:42:01;22.30;99.90
15930;DHT22;8064;51.142;4.780;2022-08-19T09:44:29;22.30;99.90
15930;DHT22;8064;51.142;4.780;2022-08-19T09:46:55;22.30;99.90
15930;DHT22;8064;51.142;4.780;2022-08-19T09:49:21;22.30;99.90
15930;DHT22;8064;51.142;4.780;2022-08-19T09:52:06;22.30;99.90
15930;DHT22;8064;51.142;4.780;2022-08-19T09:54:33;22.30;99.90
15930;DHT22;8064;51.142;4.780;2022-08-19T09:57:00;22.30;99.90
15930;DHT22;8064;51.142;4.780;2022-08-19T09:59:27;22.30;99.90
15930;DHT22;8064;51.142;4.780;2022-08-19T10:01:53;22.30;99.90
15930;DHT22;8064;51.142;4.780;2022-08-19T10:04:19;22.30;99.90
15930;DHT22;8064;51.142;4.780;2022-08-19T10:06:47;22.20;99.90
15930;DHT22;8064;51.142;4.780;2022-08-19T10:09:15;22.20;99.90
15930;DHT22;8064;51.142;4.780;2022-08-19T10:11:43;22.20;99.90
15930;DHT22;8064;51.142;4.780;2022-08-19T10:14:11;22.20;99.90
15930;DHT22;8064;51.142;4.780;2022-08-19T10:16:37;22.20;99.90
15930;DHT22;8064;51.142;4.780;2022-08-19T10:19:04;22.20;99.90
15930;DHT22;8064;51.142;4.780;2022-08-19T10:21:31;22.30;99.90
15930;DHT22;8064;51.142;4.780;2022-08-19T10:23:59;22.40;99.90
15930;DHT22;8064;51.142;4.780;2022-08-19T10:26:32;22.50;99.90
15930;DHT22;8064;51.142;4.780;2022-08-19T10:28:58;22.60;99.90
15930;DHT22;8064;51.142;4.780;2022-08-19T10:31:28;22.80;99.90
15930;DHT22;8064;51.142;4.780;2022-08-19T10:33:55;22.80;99.90
15930;DHT22;8064;51.142;4.780;2022-08-19T10:36:27;22.90;99.90
15930;DHT22;8064;51.142;4.780;2022-08-19T10:38:55;22.90;99.90
15930;DHT22;8064;51.142;4.780;2022-08-19T10:41:27;23.00;99.90
15930;DHT22;8064;51.142;4.780;2022-08-19T10:43:56;23.10;99.90
15930;DHT22;8064;51.142;4.780;2022-08-19T10:46:25;23.30;99.80
15930;DHT22;8064;51.142;4.780;2022-08-19T10:48:52;23.30;99.70
15930;DHT22;8064;51.142;4.780;2022-08-19T10:51:18;23.30;99.70
15930;DHT22;8064;51.142;4.780;2022-08-19T10:54:03;23.40;99.70
15930;DHT22;8064;51.142;4.780;2022-08-19T10:56:29;23.40;99.70
15930;DHT22;8064;51.142;4.780;2022-08-19T10:59:15;23.50;99.60
15930;DHT22;8064;51.142;4.780;2022-08-19T11:01:42;23.60;99.60
15930;DHT22;8064;51.142;4.780;2022-08-19T11:04:08;23.60;99.40
15930;DHT22;8064;51.142;4.780;2022-08-19T11:06:37;23.60;99.30
15930;DHT22;8064;51.142;4.780;2022-08-19T11:09:05;23.60;99.30
15930;DHT22;8064;51.142;4.780;2022-08-19T11:11:31;23.60;99.30
15930;DHT22;8064;51.142;4.780;2022-08-19T11:13:58;23.50;99.30
15930;DHT22;8064;51.142;4.780;2022-08-19T11:16:26;23.50;99.30
15930;DHT22;8064;51.142;4.780;2022-08-19T11:18:55;23.40;99.30
15930;DHT22;8064;51.142;4.780;2022-08-19T11:21:27;23.30;99.30
15930;DHT22;8064;51.142;4.780;2022-08-19T11:23:56;23.30;99.30
15930;DHT22;8064;51.142;4.780;2022-08-19T11:26:23;23.30;99.30
15930;DHT22;8064;51.142;4.780;2022-08-19T11:28:49;23.50;99.20
15930;DHT22;8064;51.142;4.780;2022-08-19T11:31:21;23.60;99.10
15930;DHT22;8064;51.142;4.780;2022-08-19T11:33:47;23.80;99.10
15930;DHT22;8064;51.142;4.780;2022-08-19T11:36:17;23.90;99.00
15930;DHT22;8064;51.142;4.780;2022-08-19T11:38:44;24.00;99.00
15930;DHT22;8064;51.142;4.780;2022-08-19T11:41:10;24.00;99.00
15930;DHT22;8064;51.142;4.780;2022-08-19T11:43:37;24.10;98.90
15930;DHT22;8064;51.142;4.780;2022-08-19T11:46:05;24.10;98.80
15930;DHT22;8064;51.142;4.780;2022-08-19T11:48:32;24.10;98.80
15930;DHT22;8064;51.142;4.780;2022-08-19T11:50:58;24.10;98.70
15930;DHT22;8064;51.142;4.780;2022-08-19T11:53:24;24.10;98.70
15930;DHT22;8064;51.142;4.780;2022-08-19T11:55:53;24.20;98.70
15930;DHT22;8064;51.142;4.780;2022-08-19T11:58:21;24.20;98.80
15930;DHT22;8064;51.142;4.780;2022-08-19T12:00:47;24.30;98.90
15930;DHT22;8064;51.142;4.780;2022-08-19T12:03:13;24.40;98.70
15930;DHT22;8064;51.142;4.780;2022-08-19T12:05:40;24.40;98.60
15930;DHT22;8064;51.142;4.780;2022-08-19T12:08:07;24.40;98.40
15930;DHT22;8064;51.142;4.780;2022-08-19T12:10:34;24.30;98.20
15930;DHT22;8064;51.142;4.780;2022-08-19T12:13:00;24.30;98.40
15930;DHT22;8064;51.142;4.780;2022-08-19T12:15:27;24.30;98.50
15930;DHT22;8064;51.142;4.780;2022-08-19T12:17:55;24.40;98.50
15930;DHT22;8064;51.142;4.780;2022-08-19T12:20:23;24.40;98.30
15930;DHT22;8064;51.142;4.780;2022-08-19T12:22:50;24.40;98.40
15930;DHT22;8064;51.142;4.780;2022-08-19T12:25:16;24.40;98.50
15930;DHT22;8064;51.142;4.780;2022-08-19T12:27:42;24.60;98.60
15930;DHT22;8064;51.142;4.780;2022-08-19T12:30:11;24.80;98.70
15930;DHT22;8064;51.142;4.780;2022-08-19T12:32:37;25.00;98.50
15930;DHT22;8064;51.142;4.780;2022-08-19T12:35:04;25.10;98.10
15930;DHT22;8064;51.142;4.780;2022-08-19T12:37:30;25.20;98.20
15930;DHT22;8064;51.142;4.780;2022-08-19T12:39:57;25.30;97.70
15930;DHT22;8064;51.142;4.780;2022-08-19T12:42:23;25.30;97.50
15930;DHT22;8064;51.142;4.780;2022-08-19T12:44:49;25.40;97.20
15930;DHT22;8064;51.142;4.780;2022-08-19T12:47:15;25.50;97.10
15930;DHT22;8064;51.142;4.780;2022-08-19T12:49:42;25.60;97.10
15930;DHT22;8064;51.142;4.780;2022-08-19T12:52:09;25.60;97.00
15930;DHT22;8064;51.142;4.780;2022-08-19T12:54:36;25.80;96.80
15930;DHT22;8064;51.142;4.780;2022-08-19T12:57:12;25.80;96.60
15930;DHT22;8064;51.142;4.780;2022-08-19T12:59:39;25.70;96.50
15930;DHT22;8064;51.142;4.780;2022-08-19T13:02:06;25.70;96.40
15930;DHT22;8064;51.142;4.780;2022-08-19T13:04:33;25.70;96.20
15930;DHT22;8064;51.142;4.780;2022-08-19T13:07:02;25.80;96.20
15930;DHT22;8064;51.142;4.780;2022-08-19T13:09:28;25.90;95.80
15930;DHT22;8064;51.142;4.780;2022-08-19T13:11:54;26.00;95.60
15930;DHT22;8064;51.142;4.780;2022-08-19T13:14:20;25.90;95.40
15930;DHT22;8064;51.142;4.780;2022-08-19T13:16:45;25.90;95.30
15930;DHT22;8064;51.142;4.780;2022-08-19T13:19:11;25.90;95.30
15930;DHT22;8064;51.142;4.780;2022-08-19T13:21:38;25.90;95.30
15930;DHT22;8064;51.142;4.780;2022-08-19T13:24:05;25.80;95.30
15930;DHT22;8064;51.142;4.780;2022-08-19T13:26:31;25.80;95.40
15930;DHT22;8064;51.142;4.780;2022-08-19T13:28:57;25.80;95.50
15930;DHT22;8064;51.142;4.780;2022-08-19T13:31:42;25.70;95.40
15930;DHT22;8064;51.142;4.780;2022-08-19T13:34:31;25.70;95.30
15930;DHT22;8064;51.142;4.780;2022-08-19T13:36:58;25.60;95.40
15930;DHT22;8064;51.142;4.780;2022-08-19T13:39:24;25.60;95.30
15930;DHT22;8064;51.142;4.780;2022-08-19T13:41:50;25.60;95.20
15930;DHT22;8064;51.142;4.780;2022-08-19T13:44:16;25.70;94.90
15930;DHT22;8064;51.142;4.780;2022-08-19T13:46:44;25.70;94.80
15930;DHT22;8064;51.142;4.780;2022-08-19T13:49:12;25.80;94.70
15930;DHT22;8064;51.142;4.780;2022-08-19T13:51:41;25.90;94.70
15930;DHT22;8064;51.142;4.780;2022-08-19T13:54:08;26.00;94.80
15930;DHT22;8064;51.142;4.780;2022-08-19T13:56:35;26.00;94.80
15930;DHT22;8064;51.142;4.780;2022-08-19T13:59:04;26.00;94.70
15930;DHT22;8064;51.142;4.780;2022-08-19T14:01:30;26.00;94.60
15930;DHT22;8064;51.142;4.780;2022-08-19T14:03:56;26.10;94.50
15930;DHT22;8064;51.142;4.780;2022-08-19T14:06:22;26.10;94.30
15930;DHT22;8064;51.142;4.780;2022-08-19T14:08:48;26.10;94.20
15930;DHT22;8064;51.142;4.780;2022-08-19T14:11:14;26.10;94.00
15930;DHT22;8064;51.142;4.780;2022-08-19T14:13:41;26.10;94.10
15930;DHT22;8064;51.142;4.780;2022-08-19T14:16:10;26.00;94.00
15930;DHT22;8064;51.142;4.780;2022-08-19T14:18:36;26.00;93.90
15930;DHT22;8064;51.142;4.780;2022-08-19T14:21:03;26.00;93.80
15930;DHT22;8064;51.142;4.780;2022-08-19T14:23:30;26.00;93.80
15930;DHT22;8064;51.142;4.780;2022-08-19T14:26:15;26.00;93.80
15930;DHT22;8064;51.142;4.780;2022-08-19T14:28:43;26.00;93.80
15930;DHT22;8064;51.142;4.780;2022-08-19T14:31:11;26.10;93.80
15930;DHT22;8064;51.142;4.780;2022-08-19T14:33:38;26.10;93.80
15930;DHT22;8064;51.142;4.780;2022-08-19T14:36:05;26.30;93.80
15930;DHT22;8064;51.142;4.780;2022-08-19T14:38:31;26.30;93.70
15930;DHT22;8064;51.142;4.780;2022-08-19T14:41:12;26.40;93.40
15930;DHT22;8064;51.142;4.780;2022-08-19T14:43:38;26.50;93.00
15930;DHT22;8064;51.142;4.780;2022-08-19T14:46:05;26.50;92.80
15930;DHT22;8064;51.142;4.780;2022-08-19T14:48:31;26.50;92.70
15930;DHT22;8064;51.142;4.780;2022-08-19T14:50:56;26.40;92.80
15930;DHT22;8064;51.142;4.780;2022-08-19T14:53:22;26.40;92.80
15930;DHT22;8064;51.142;4.780;2022-08-19T14:55:48;26.40;92.70
15930;DHT22;8064;51.142;4.780;2022-08-19T14:58:14;26.40;92.60
15930;DHT22;8064;51.142;4.780;2022-08-19T15:00:40;26.40;92.60
15930;DHT22;8064;51.142;4.780;2022-08-19T15:03:06;26.30;92.50
15930;DHT22;8064;51.142;4.780;2022-08-19T15:05:32;26.30;92.50
15930;DHT22;8064;51.142;4.780;2022-08-19T15:08:03;26.20;92.70
15930;DHT22;8064;51.142;4.780;2022-08-19T15:10:29;26.20;93.00
15930;DHT22;8064;51.142;4.780;2022-08-19T15:12:54;26.10;93.20
15930;DHT22;8064;51.142;4.780;2022-08-19T15:15:20;26.10;93.20
15930;DHT22;8064;51.142;4.780;2022-08-19T15:17:48;26.00;93.30
15930;DHT22;8064;51.142;4.780;2022-08-19T15:20:17;25.90;93.30
15930;DHT22;8064;51.142;4.780;2022-08-19T15:22:44;25.80;93.30
15930;DHT22;8064;51.142;4.780;2022-08-19T15:25:12;25.70;93.40
15930;DHT22;8064;51.142;4.780;2022-08-19T15:27:38;25.60;93.50
15930;DHT22;8064;51.142;4.780;2022-08-19T15:30:06;25.50;93.80
15930;DHT22;8064;51.142;4.780;2022-08-19T15:32:33;25.30;94.10
15930;DHT22;8064;51.142;4.780;2022-08-19T15:35:00;25.10;94.40
15930;DHT22;8064;51.142;4.780;2022-08-19T15:37:27;24.90;94.90
15930;DHT22;8064;51.142;4.780;2022-08-19T15:39:53;24.70;95.40
15930;DHT22;8064;51.142;4.780;2022-08-19T15:42:19;24.50;95.90
15930;DHT22;8064;51.142;4.780;2022-08-19T15:44:46;24.20;96.30
15930;DHT22;8064;51.142;4.780;2022-08-19T15:47:12;24.10;96.70
15930;DHT22;8064;51.142;4.780;2022-08-19T15:49:38;23.90;97.00
15930;DHT22;8064;51.142;4.780;2022-08-19T15:52:04;23.80;97.40
15930;DHT22;8064;51.142;4.780;2022-08-19T15:54:32;23.80;97.80
15930;DHT22;8064;51.142;4.780;2022-08-19T15:56:58;23.70;98.40
15930;DHT22;8064;51.142;4.780;2022-08-19T15:59:43;23.70;98.30
15930;DHT22;8064;51.142;4.780;2022-08-19T16:02:28;23.60;98.50
15930;DHT22;8064;51.142;4.780;2022-08-19T16:05:22;23.60;98.70
15930;DHT22;8064;51.142;4.780;2022-08-19T16:08:07;23.60;99.10
15930;DHT22;8064;51.142;4.780;2022-08-19T16:10:35;23.60;99.10
15930;DHT22;8064;51.142;4.780;2022-08-19T16:13:01;23.60;99.20
15930;DHT22;8064;51.142;4.780;2022-08-19T16:15:29;23.60;99.40
15930;DHT22;8064;51.142;4.780;2022-08-19T16:17:56;23.70;99.50